India Meteorological Department
Airport METARs
Date : 28-05-2024
Sl. # Airport METAR
1 Ahmedabad VAAH 282100Z 25011KT 4000 FU NSC 31/21 Q0999 NOSIG=
2 Allahabad VEAB 282030Z 00000KT 6000 SKC 33/21 Q0993 NOSIG=
3 Amritsar VIAR 282100Z VRB02KT 4000 FU NSC 30/16 Q0993 NOSIG=
4 Bangalore VOBL 282100Z 26010KT 6000 SCT012 SCT080 22/21 Q1009 NOSIG=
5 Bhubaneswar VEBS 282100Z 19010KT 4000 HZ SCT012 BKN018 BKN100 31/28 Q0998 NOSIG=
6 Chennai VOMM 282100Z 23008KT 6000 FEW020 SCT100 32/26 Q1000 NOSIG=
7 Coimbatore VOCB 282100Z 23010KT 4000 BR FEW012 SCT080 25/22 Q1007 NOSIG=
8 Colombo VCBI 282110Z 25006KT 210V320 9999 BKN016 29/26 Q1006 NOSIG=
9 Delhi VIDP 282100Z 14003KT 3500 HZ NSC 34/07 Q0994 NOSIG=
10 Gauhati VEGT 282100Z NIL=
11 Gaya VEGY 282100Z 00000KT 4000 HZ SCT100 32/26 Q0994 =
12 Goa VOGO 282000Z 29008KT 6000 FEW030 SCT080 30/26 Q1004 NOSIG=
13 Hyderabad VOHS 282100Z 26013KT 6000 SCT020 29/21 Q1005 NOSIG=
14 Indore VAID 282100Z 27011KT 6000 NSC 28/21 Q1002 NOSIG=
15 Jaipur VIJP 282100Z 25010KT 4000 HZ NSC 36/19 Q0997 NOSIG=
16 Kochi VOCI 282100Z 18003KT 3000 BR FEW008 SCT012 FEW025CB BKN080 25/24 Q1006 NOSIG=
17 Kolkata VECC 282100Z 18013KT 3200 HZ SCT018 SCT100 30/28 Q0996 TEMPO TL2130 18012G22KT=
18 Kozhikode VOCL 282100Z 06002KT 3000 BR SCT012 BKN080 24/24 Q1006 BECMG 5000 BR=
19 Lucknow VILK 282100Z 12007KT 5000 HZ NSC 33/22 Q0993 NOSIG=
20 Madurai VOMD 282100Z 22004KT 6000 FEW020 28/22 Q1004 NOSIG=
21 Mumbai VABB 282100Z 24010KT 3000 HZ FEW020 SCT025 31/26 Q1003 NOSIG=
22 Nagpur VANP 282100Z 25004KT 3500 HZ FEW020 SCT100 31/21 Q0999 NOSIG=
23 Patna VEPT 282100Z 07004KT 4000 BR FEW100 33/30 Q0993 NOSIG=
24 Pathankot VIPK 282030Z 08003KT 6000 SKC 32/08 Q0995 NOSIG=
25 Ranchi VERC 282100Z 00000KT 5000 HZ FEW020 SCT100 28/22 Q1000 NOSIG=
26 Trichy VOTR 282100Z 27011KT 5000 HZ FEW016 29/23 Q1003 NOSIG=
27 Trivandrum VOTV 282100Z 04004KT 3000 BR SCT012 FEW025CB BKN080 26/24 Q1006 NOSIG=
28 Varanasi VEBN 282100Z 08004KT 3000 HZ NSC 33/26 Q0993 NOSIG=
29 Vizag VOVZ 282100Z 23008KT 4000 HZ FEW018 SCT220 32/25 Q0998 NOSIG=
30 Male VRMM 282100Z 28030KT 270V350 7000 -SHRA SCT017 FEW018CB OVC090 28/25 Q1008 CB N,E,S,SW,NW TEMPO 29020G45KT 4000 SHRA=
31 Gan VRMG 282100Z 03003KT 9999 FEW017 FEW018CB BKN110 26/25 Q1009 CB S,SSW TEMPO 4000 SHRA=
32 Kathmandu VNKT 282100Z 00000KT 7000 FEW015 21/20 Q1005 NOSIG=
33 Dhaka VGHS 282100Z 18008KT 4000 HZ SCT012 BKN100 30/28 Q0998 NOSIG=
34 Colombo VCBI 282110Z 25006KT 210V320 9999 BKN016 29/26 Q1006 NOSIG=
35 Karachi OPKC 282100Z 27010KT 6000 NSC 31/25 Q0997 NOSIG=
36 Lahore OPLA 282055Z 02006KT 6000 NSC 32/15 Q0993 NOSIG RMK QFE967 A29.32=
37 Leh VILH 282030Z 29010KT 6000 BKN070 09/M00 Q1023 NOSIG=
38 Sri Nagar VISR 282030Z 19004KT 6000 FEW025 17/07 Q1011 NOSIG=
39 Jammu VIJU 282030Z 01003KT 6000 SKC 31/06 Q0994 NOSIG=
40 Jodhpur VIJO 282030Z 24014KT 6000 SKC 36/23 Q0996 TEMPO 23015G25KT=
41 Jaisalmer VIJR 282030Z 20014KT 5000 DU SKC 33/23 Q0995 NOSIG=
42 Gorakhpur VEGK 282030Z VRB02KT 6000 SKC 30/26 Q0994 NOSIG=
43 Agra VIAG 282030Z 20006KT 6000 FEW100 33/16 Q0993 NOSIG=
44 Bagdogra VEBD 282030Z VRB02KT 5000 -TSRABR SCT020 FEW030CB BKN080 25/25 Q0998 TEMPO 3000=
45 Pune VAPO 282030Z 26011KT 6000 SKC 25/21 Q1007 TEMPO 27015G25KT=
46 Chandigarh VICG 282030Z VRB02KT 6000 SKC 29/13 Q0994 NOSIG=
47 Jamnagar VAJM 282030Z 23015KT 6000 SCT015 30/26 Q0999 NOSIG=

 

--- End of List ---